createdAt,value
2017-07-05T00:07:49.298Z,0
2017-07-05T00:18:04.123Z,0
2017-07-05T07:28:29.477Z,1275
2017-07-05T07:38:40.410Z,1340
2017-07-05T07:48:53.952Z,1370
2017-07-05T07:59:07.855Z,1405
2017-07-05T08:09:22.492Z,1630
2017-07-05T08:19:36.107Z,1675
2017-07-05T08:29:51.027Z,1370
2017-07-05T08:40:07.160Z,1655
2017-07-05T08:50:41.256Z,1720
2017-07-05T09:00:40.101Z,710
2017-07-05T09:10:52.316Z,1855
2017-07-05T09:21:06.827Z,1960
2017-07-05T09:31:25.789Z,1845
2017-07-05T09:41:36.128Z,2110
2017-07-05T09:51:51.806Z,2060
2017-07-05T10:02:07.265Z,2050
2017-07-05T10:12:28.619Z,2225
2017-07-05T10:53:21.504Z,2370
2017-07-05T11:03:36.946Z,1915
2017-07-05T11:13:51.431Z,700
2017-07-05T11:24:06.921Z,2700
2017-07-05T11:34:21.929Z,1135
2017-07-05T11:44:36.277Z,2115
2017-07-05T11:54:50.916Z,1035
2017-07-05T12:05:05.757Z,1145
2017-07-05T12:15:21.079Z,615
2017-07-05T12:25:36.026Z,1725
2017-07-05T12:35:49.978Z,1915
2017-07-05T12:46:04.150Z,1135
2017-07-05T12:56:18.549Z,1250
2017-07-05T13:06:33.501Z,1195
2017-07-05T13:16:49.095Z,1595
2017-07-05T13:27:04.963Z,1375
2017-07-05T13:37:20.636Z,1050
2017-07-05T13:47:35.608Z,895
2017-07-05T13:57:50.449Z,765
2017-07-05T14:08:04.768Z,1570
2017-07-05T14:18:19.100Z,1375
2017-07-05T14:28:33.246Z,940
2017-07-05T14:38:48.100Z,2160
2017-07-05T14:49:02.054Z,1405
2017-07-05T14:59:17.945Z,1480
2017-07-05T15:09:32.549Z,920
2017-07-05T15:19:47.046Z,745
2017-07-05T15:30:02.602Z,780
2017-07-05T15:40:16.995Z,635
2017-07-05T15:50:32.072Z,555
2017-07-05T16:00:47.854Z,1125
2017-07-05T16:11:02.530Z,550
2017-07-05T16:21:17.386Z,1190
2017-07-05T16:31:32.162Z,1045
2017-07-05T16:41:47.286Z,1085
2017-07-05T16:52:01.753Z,525
2017-07-05T17:02:16.248Z,570
2017-07-05T17:12:31.677Z,420
2017-07-05T17:22:45.699Z,275
2017-07-05T17:33:01.144Z,285
2017-07-05T17:43:15.712Z,270
2017-07-05T17:53:29.865Z,210
2017-07-05T18:03:44.631Z,230
2017-07-05T18:13:59.090Z,255
2017-07-05T18:24:14.572Z,190
2017-07-05T18:34:29.285Z,190
2017-07-05T18:44:44.594Z,130
2017-07-05T18:54:58.891Z,105
2017-07-05T19:05:14.647Z,80
2017-07-05T19:15:29.983Z,50
2017-07-05T19:25:45.555Z,40
2017-07-05T19:36:00.253Z,30
2017-07-05T19:46:15.611Z,15
2017-07-05T19:56:29.621Z,5
2017-07-05T20:06:45.069Z,0
2017-07-05T20:16:59.612Z,0
2017-07-05T20:27:15.017Z,0
2017-07-05T20:37:29.342Z,0
2017-07-05T20:47:45.072Z,0
2017-07-05T20:58:00.744Z,0
2017-07-05T21:08:15.165Z,0
2017-07-05T21:18:29.417Z,0
2017-07-05T21:28:45.178Z,0
2017-07-05T21:38:58.973Z,0
2017-07-05T21:49:14.076Z,0
2017-07-05T21:59:28.570Z,0
2017-07-05T22:09:43.161Z,0
2017-07-05T22:19:57.452Z,0
2017-07-05T22:30:12.591Z,0
2017-07-05T22:40:27.663Z,0
2017-07-05T22:50:42.574Z,0
2017-07-05T23:00:57.822Z,0
2017-07-05T23:11:11.827Z,0
2017-07-05T23:21:26.571Z,0
2017-07-05T23:31:41.881Z,0
2017-07-05T23:41:56.208Z,0
2017-07-05T23:52:11.322Z,0
